createdAt,value
2022-10-23T00:00:42.848Z,8.69
2022-10-23T00:06:11.604Z,8.72
2022-10-23T00:11:41.516Z,8.76
2022-10-23T00:17:12.775Z,8.78
2022-10-23T00:22:41.164Z,8.82
2022-10-23T00:28:10.566Z,8.92
2022-10-23T00:33:41.313Z,9.02
2022-10-23T00:39:10.030Z,9.18
2022-10-23T00:45:16.580Z,9.34
2022-10-23T00:50:49.223Z,9.45
2022-10-23T00:56:18.413Z,9.54
2022-10-23T01:01:48.353Z,9.52
2022-10-23T01:07:26.106Z,9.48
2022-10-23T01:13:04.573Z,9.44
2022-10-23T01:18:41.281Z,9.39
2022-10-23T01:24:20.582Z,9.38
2022-10-23T01:30:01.158Z,9.30
2022-10-23T01:35:38.972Z,9.31
2022-10-23T01:41:12.520Z,9.32
2022-10-23T01:46:44.954Z,9.35
2022-10-23T01:52:15.670Z,9.40
2022-10-23T01:57:49.521Z,9.40
2022-10-23T02:03:19.679Z,9.48
2022-10-23T02:08:48.665Z,9.46
2022-10-23T02:14:21.688Z,9.48
2022-10-23T02:19:59.396Z,9.43
2022-10-23T02:25:34.018Z,9.40
2022-10-23T02:31:05.702Z,9.43
2022-10-23T02:36:36.661Z,9.43
2022-10-23T02:42:12.445Z,9.46
2022-10-23T02:47:55.181Z,9.52
2022-10-23T02:53:34.413Z,9.52
2022-10-23T02:59:10.509Z,9.53
2022-10-23T03:04:43.045Z,9.54
2022-10-23T03:10:14.412Z,9.55
2022-10-23T03:15:44.583Z,9.56
2022-10-23T03:21:16.257Z,9.54
2022-10-23T03:26:46.560Z,9.53
2022-10-23T03:32:15.337Z,9.57
2022-10-23T03:37:44.746Z,9.60
2022-10-23T03:43:15.966Z,9.58
2022-10-23T03:48:45.820Z,9.59
2022-10-23T03:54:14.286Z,9.57
2022-10-23T03:59:44.890Z,9.57
2022-10-23T04:05:09.548Z,9.57
2022-10-23T04:10:34.888Z,9.57
2022-10-23T04:16:01.211Z,9.61
2022-10-23T04:21:24.773Z,9.63
2022-10-23T04:26:48.749Z,9.68
2022-10-23T04:32:14.239Z,9.74
2022-10-23T04:37:41.967Z,9.80
2022-10-23T04:43:06.804Z,9.85
2022-10-23T04:48:37.151Z,9.92
2022-10-23T04:54:20.075Z,10.00
2022-10-23T05:00:19.567Z,10.11
2022-10-23T05:05:55.773Z,10.18
2022-10-23T05:11:39.325Z,10.30
2022-10-23T05:17:10.634Z,10.35
2022-10-23T05:22:40.340Z,10.38
2022-10-23T05:28:08.902Z,10.43
2022-10-23T05:33:34.007Z,10.49
2022-10-23T05:39:00.228Z,10.47
2022-10-23T05:44:25.981Z,10.47
2022-10-23T05:50:06.880Z,10.53
2022-10-23T05:56:09.756Z,10.57
2022-10-23T06:01:42.324Z,10.59
2022-10-23T06:07:07.452Z,10.64
2022-10-23T06:12:33.924Z,10.65
2022-10-23T06:18:01.970Z,10.71
2022-10-23T06:23:28.909Z,10.72
2022-10-23T06:29:17.040Z,10.75
2022-10-23T06:34:41.089Z,10.68
2022-10-23T06:40:07.945Z,10.74
2022-10-23T06:46:01.899Z,10.79
2022-10-23T06:51:58.193Z,10.79
2022-10-23T06:57:22.035Z,10.80
2022-10-23T07:02:48.001Z,10.86
2022-10-23T07:08:14.255Z,10.86
2022-10-23T07:13:41.091Z,10.90
2022-10-23T07:19:15.884Z,10.98
2022-10-23T07:25:09.490Z,10.97
2022-10-23T07:30:36.034Z,10.98
2022-10-23T07:36:02.597Z,11.00
2022-10-23T07:41:27.414Z,10.99
2022-10-23T07:46:51.973Z,10.97
2022-10-23T07:52:18.361Z,10.92
2022-10-23T07:58:06.390Z,10.84
2022-10-23T08:03:38.099Z,10.73
2022-10-23T08:09:06.605Z,10.64
2022-10-23T08:14:35.253Z,10.61
2022-10-23T08:19:59.795Z,10.59
2022-10-23T08:30:57.696Z,10.68
2022-10-23T08:36:25.102Z,10.72
2022-10-23T08:41:52.625Z,10.72
2022-10-23T08:47:23.997Z,10.68
2022-10-23T08:53:06.168Z,10.55
2022-10-23T08:58:38.669Z,10.50
2022-10-23T09:04:04.940Z,10.45
2022-10-23T09:09:47.859Z,10.36
2022-10-23T09:15:24.155Z,10.29
2022-10-23T09:20:50.278Z,10.28
2022-10-23T09:26:17.504Z,10.26
2022-10-23T09:31:51.459Z,10.26
2022-10-23T09:37:23.237Z,10.25
2022-10-23T09:42:59.254Z,10.23
2022-10-23T09:48:25.095Z,10.19
2022-10-23T09:53:53.483Z,10.11
2022-10-23T09:59:25.016Z,10.04
2022-10-23T10:04:54.664Z,10.00
2022-10-23T10:10:19.627Z,9.94
2022-10-23T10:15:51.500Z,9.89
2022-10-23T10:21:22.317Z,9.84
2022-10-23T10:26:58.975Z,9.87
2022-10-23T10:32:36.852Z,9.88
2022-10-23T10:38:21.307Z,9.92
2022-10-23T10:43:53.168Z,9.97
2022-10-23T10:49:24.211Z,10.03
2022-10-23T10:55:13.952Z,10.14
2022-10-23T11:00:38.576Z,10.21
2022-10-23T11:06:05.806Z,10.28
2022-10-23T11:11:37.265Z,10.36
2022-10-23T11:17:09.300Z,10.43
2022-10-23T11:22:38.625Z,10.55
2022-10-23T11:28:19.889Z,10.63
2022-10-23T11:34:07.985Z,10.73
2022-10-23T11:39:37.142Z,10.82
2022-10-23T11:45:32.239Z,10.88
2022-10-23T11:50:59.045Z,10.97
2022-10-23T11:56:28.069Z,11.01
2022-10-23T12:01:58.129Z,11.08
2022-10-23T12:07:25.893Z,11.16
2022-10-23T12:12:57.694Z,11.18
2022-10-23T12:18:24.188Z,11.22
2022-10-23T12:24:09.173Z,11.20
2022-10-23T12:29:44.769Z,11.11
2022-10-23T12:35:25.732Z,11.06
2022-10-23T12:40:53.726Z,11.00
2022-10-23T12:46:32.623Z,10.91
2022-10-23T12:52:01.052Z,10.83
2022-10-23T12:57:30.206Z,10.71
2022-10-23T13:03:03.409Z,10.63
2022-10-23T13:08:35.278Z,10.52
2022-10-23T13:14:33.160Z,10.41
2022-10-23T13:19:57.331Z,10.29
2022-10-23T13:25:25.066Z,10.21
2022-10-23T13:31:03.026Z,10.12
2022-10-23T13:36:31.266Z,10.03
2022-10-23T13:42:03.057Z,9.98
2022-10-23T13:47:28.545Z,9.93
2022-10-23T13:52:53.537Z,9.92
2022-10-23T13:58:20.051Z,9.91
2022-10-23T14:03:44.960Z,9.89
2022-10-23T14:09:12.957Z,9.91
2022-10-23T14:14:39.179Z,9.88
2022-10-23T14:20:06.052Z,9.89
2022-10-23T14:25:30.139Z,9.90
2022-10-23T14:30:55.810Z,9.89
2022-10-23T14:36:20.823Z,9.90
2022-10-23T14:41:45.485Z,9.90
2022-10-23T14:47:11.563Z,9.88
2022-10-23T14:52:36.711Z,9.87
2022-10-23T14:58:01.506Z,9.85
2022-10-23T15:03:27.470Z,9.84
2022-10-23T15:08:52.245Z,9.81
2022-10-23T15:14:17.526Z,9.79
2022-10-23T15:19:44.515Z,9.78
2022-10-23T15:25:14.262Z,9.78
2022-10-23T15:30:43.486Z,9.77
2022-10-23T15:36:09.761Z,9.84
2022-10-23T15:41:37.985Z,9.80
2022-10-23T15:47:02.764Z,9.71
2022-10-23T15:52:29.553Z,9.78
2022-10-23T15:57:59.107Z,9.83
2022-10-23T16:03:23.597Z,9.81
2022-10-23T16:08:49.741Z,9.78
2022-10-23T16:14:16.506Z,9.77
2022-10-23T16:19:41.993Z,9.75
2022-10-23T16:25:09.179Z,9.73
2022-10-23T16:30:34.434Z,9.77
2022-10-23T16:36:04.120Z,9.87
2022-10-23T16:41:30.818Z,10.01
2022-10-23T16:47:00.150Z,10.11
2022-10-23T16:52:25.406Z,10.15
2022-10-23T16:57:51.543Z,10.14
2022-10-23T17:03:16.407Z,10.14
2022-10-23T17:08:41.712Z,10.10
2022-10-23T17:14:09.696Z,10.09
2022-10-23T17:19:49.790Z,10.08
2022-10-23T17:25:15.416Z,10.11
2022-10-23T17:30:41.148Z,10.10
2022-10-23T17:36:06.076Z,10.11
2022-10-23T17:41:30.016Z,10.13
2022-10-23T17:46:56.876Z,10.10
2022-10-23T17:52:20.872Z,10.09
2022-10-23T17:57:45.530Z,10.08
2022-10-23T18:03:15.463Z,10.06
2022-10-23T18:08:44.866Z,10.03
2022-10-23T18:14:09.469Z,10.02
2022-10-23T18:19:36.505Z,10.01
2022-10-23T18:25:01.045Z,9.98
2022-10-23T18:30:25.107Z,9.99
2022-10-23T18:35:51.525Z,9.95
2022-10-23T18:41:18.053Z,9.96
2022-10-23T18:46:42.049Z,9.88
2022-10-23T18:52:07.532Z,9.86
2022-10-23T18:57:32.479Z,9.84
2022-10-23T19:02:56.416Z,9.86
2022-10-23T19:08:21.939Z,9.82
2022-10-23T19:13:47.123Z,9.84
2022-10-23T19:19:16.375Z,9.83
2022-10-23T19:24:46.658Z,9.81
2022-10-23T19:30:13.723Z,9.81
2022-10-23T19:35:38.139Z,9.83
2022-10-23T19:41:04.839Z,9.87
2022-10-23T19:46:31.921Z,9.85
2022-10-23T19:51:57.091Z,9.86
2022-10-23T19:57:27.255Z,9.88
2022-10-23T20:02:55.168Z,9.91
2022-10-23T20:08:24.637Z,9.88
2022-10-23T20:13:51.449Z,9.87
2022-10-23T20:24:47.365Z,9.86
2022-10-23T20:30:13.500Z,9.86
2022-10-23T20:35:41.742Z,9.85
2022-10-23T20:41:07.503Z,9.86
2022-10-23T20:46:35.136Z,9.88
2022-10-23T20:51:59.933Z,9.84
2022-10-23T20:57:24.283Z,9.85
2022-10-23T21:02:52.533Z,9.87
2022-10-23T21:08:17.449Z,9.87
2022-10-23T21:13:43.069Z,9.88
2022-10-23T21:19:11.770Z,9.88
2022-10-23T21:24:35.669Z,9.84
2022-10-23T21:30:00.114Z,9.74
2022-10-23T21:35:29.284Z,9.54
2022-10-23T21:40:53.966Z,9.41
2022-10-23T21:46:21.786Z,9.34
2022-10-23T21:51:47.963Z,9.23
2022-10-23T21:57:14.371Z,9.20
2022-10-23T22:02:38.884Z,9.24
2022-10-23T22:08:05.247Z,9.23
2022-10-23T22:13:29.849Z,9.19
2022-10-23T22:18:54.137Z,9.24
2022-10-23T22:24:20.420Z,9.19
2022-10-23T22:29:45.964Z,9.17
2022-10-23T22:35:10.589Z,9.14
2022-10-23T22:40:41.884Z,9.07
2022-10-23T22:46:10.142Z,9.07
2022-10-23T22:51:34.433Z,9.03
2022-10-23T22:57:00.036Z,8.97
2022-10-23T23:02:24.207Z,8.95
2022-10-23T23:07:49.200Z,8.90
2022-10-23T23:13:14.878Z,8.87
2022-10-23T23:18:39.260Z,8.85
2022-10-23T23:24:03.195Z,8.85
2022-10-23T23:29:29.647Z,8.85
2022-10-23T23:35:00.214Z,8.78
2022-10-23T23:40:24.338Z,8.75
2022-10-23T23:45:49.956Z,8.71
2022-10-23T23:51:14.494Z,8.77
2022-10-23T23:56:38.465Z,8.79
